createdAt,value
2022-12-25T00:00:28.932Z,17.24
2022-12-25T00:03:31.131Z,17.25
2022-12-25T00:06:32.774Z,17.26
2022-12-25T00:09:34.276Z,17.26
2022-12-25T00:12:35.809Z,17.25
2022-12-25T00:15:40.595Z,17.26
2022-12-25T00:18:42.140Z,17.26
2022-12-25T00:21:43.663Z,17.23
2022-12-25T00:24:47.383Z,17.23
2022-12-25T00:27:48.922Z,17.22
2022-12-25T00:30:50.956Z,17.21
2022-12-25T00:33:53.203Z,17.20
2022-12-25T00:36:54.737Z,17.17
2022-12-25T00:39:56.321Z,17.16
2022-12-25T00:42:57.930Z,17.16
2022-12-25T00:46:02.115Z,17.15
2022-12-25T00:49:03.877Z,17.12
2022-12-25T00:52:05.828Z,17.11
2022-12-25T00:55:07.568Z,17.10
2022-12-25T00:58:09.112Z,17.09
2022-12-25T01:01:13.899Z,17.09
2022-12-25T01:04:15.575Z,17.06
2022-12-25T01:07:18.179Z,17.06
2022-12-25T01:10:22.315Z,17.05
2022-12-25T01:13:24.202Z,17.05
2022-12-25T01:16:26.015Z,17.04
2022-12-25T01:19:27.570Z,17.02
2022-12-25T01:22:29.129Z,17.01
2022-12-25T01:25:30.664Z,17.00
2022-12-25T01:28:32.421Z,16.99
2022-12-25T01:31:33.963Z,16.97
2022-12-25T01:34:35.553Z,16.97
2022-12-25T01:37:37.061Z,16.96
2022-12-25T01:40:39.280Z,16.95
2022-12-25T01:43:59.643Z,16.96
2022-12-25T01:47:02.194Z,16.92
2022-12-25T01:50:05.026Z,16.92
2022-12-25T01:53:07.423Z,16.91
2022-12-25T01:56:09.269Z,16.90
2022-12-25T01:59:15.953Z,16.92
2022-12-25T02:02:17.859Z,16.89
2022-12-25T02:05:27.040Z,16.89
2022-12-25T02:08:28.585Z,16.87
2022-12-25T02:11:48.585Z,16.86
2022-12-25T02:14:52.055Z,16.85
2022-12-25T02:18:02.836Z,16.85
2022-12-25T02:21:33.380Z,16.84
2022-12-25T02:24:40.990Z,16.83
2022-12-25T02:28:00.731Z,16.83
2022-12-25T02:31:12.935Z,16.82
2022-12-25T02:34:32.172Z,16.81
2022-12-25T02:37:39.885Z,16.80
2022-12-25T02:40:45.327Z,16.79
2022-12-25T02:44:05.723Z,16.78
2022-12-25T02:47:45.347Z,16.76
2022-12-25T02:51:06.181Z,16.74
2022-12-25T02:54:32.913Z,16.76
2022-12-25T02:57:57.858Z,16.73
2022-12-25T03:01:22.770Z,16.72
2022-12-25T03:04:44.624Z,16.71
2022-12-25T03:07:47.198Z,16.71
2022-12-25T03:11:18.165Z,16.70
2022-12-25T03:14:38.708Z,16.69
2022-12-25T03:17:40.257Z,16.69
2022-12-25T03:21:00.421Z,16.68
2022-12-25T03:24:22.378Z,16.67
2022-12-25T03:27:25.843Z,16.66
2022-12-25T03:30:53.565Z,16.66
2022-12-25T03:35:04.280Z,16.66
2022-12-25T03:38:47.219Z,16.64
2022-12-25T03:42:17.285Z,16.63
2022-12-25T03:46:06.828Z,16.63
2022-12-25T03:49:56.058Z,16.61
2022-12-25T03:53:19.990Z,16.57
2022-12-25T03:56:40.217Z,16.56
2022-12-25T04:00:00.114Z,16.54
2022-12-25T04:03:20.348Z,16.52
2022-12-25T04:06:40.627Z,16.52
2022-12-25T04:10:00.472Z,16.50
2022-12-25T04:13:20.245Z,16.49
2022-12-25T04:16:40.424Z,16.50
2022-12-25T04:20:00.251Z,16.50
2022-12-25T04:23:20.902Z,16.50
2022-12-25T04:26:40.697Z,16.49
2022-12-25T04:30:00.576Z,16.49
2022-12-25T04:33:20.545Z,16.47
2022-12-25T04:36:22.154Z,16.48
2022-12-25T04:39:23.643Z,16.48
2022-12-25T04:42:25.149Z,16.48
2022-12-25T04:45:26.676Z,16.48
2022-12-25T04:48:30.465Z,16.48
2022-12-25T04:51:31.974Z,16.48
2022-12-25T04:54:33.467Z,16.47
2022-12-25T04:57:35.232Z,16.48
2022-12-25T05:00:37.327Z,16.46
2022-12-25T05:03:39.801Z,16.46
2022-12-25T05:06:41.566Z,16.45
2022-12-25T05:09:43.411Z,16.44
2022-12-25T05:12:44.962Z,16.44
2022-12-25T05:15:46.660Z,16.44
2022-12-25T05:18:49.676Z,16.43
2022-12-25T05:21:51.181Z,16.43
2022-12-25T05:24:52.669Z,16.41
2022-12-25T05:27:54.303Z,16.42
2022-12-25T05:30:58.952Z,16.44
2022-12-25T05:34:00.470Z,16.41
2022-12-25T05:37:01.946Z,16.40
2022-12-25T05:40:03.847Z,16.40
2022-12-25T05:43:05.615Z,16.41
2022-12-25T05:46:08.726Z,16.39
2022-12-25T05:49:10.489Z,16.40
2022-12-25T05:52:12.113Z,16.38
2022-12-25T05:55:13.590Z,16.36
2022-12-25T05:58:15.145Z,16.37
2022-12-25T06:01:19.581Z,16.38
2022-12-25T06:04:21.099Z,16.36
2022-12-25T06:07:22.804Z,16.36
2022-12-25T06:10:24.352Z,16.35
2022-12-25T06:13:25.828Z,16.35
2022-12-25T06:16:28.751Z,16.34
2022-12-25T06:19:32.021Z,16.33
2022-12-25T06:22:34.430Z,16.34
2022-12-25T06:25:39.526Z,16.35
2022-12-25T06:28:41.255Z,16.34
2022-12-25T06:31:42.847Z,16.32
2022-12-25T06:34:44.430Z,16.32
2022-12-25T06:37:46.253Z,16.32
2022-12-25T06:40:47.736Z,16.30
2022-12-25T06:43:55.333Z,16.32
2022-12-25T06:46:56.803Z,16.31
2022-12-25T06:49:58.244Z,16.30
2022-12-25T06:52:59.759Z,16.29
2022-12-25T06:56:04.014Z,16.30
2022-12-25T06:59:07.879Z,16.30
2022-12-25T07:02:19.000Z,16.30
2022-12-25T07:05:20.555Z,16.27
2022-12-25T07:08:22.051Z,16.27
2022-12-25T07:11:24.244Z,16.27
2022-12-25T07:14:25.697Z,16.27
2022-12-25T07:17:27.281Z,16.27
2022-12-25T07:20:29.953Z,16.27
2022-12-25T07:23:31.438Z,16.24
2022-12-25T07:26:33.135Z,16.09
2022-12-25T07:29:35.088Z,15.89
2022-12-25T07:32:36.603Z,15.70
2022-12-25T07:35:38.657Z,15.53
2022-12-25T07:38:42.222Z,15.50
2022-12-25T07:41:44.552Z,15.56
2022-12-25T07:44:49.279Z,15.63
2022-12-25T07:47:53.781Z,15.72
2022-12-25T07:50:58.743Z,15.80
2022-12-25T07:54:00.308Z,15.86
2022-12-25T07:57:01.827Z,15.93
2022-12-25T08:00:05.066Z,16.00
2022-12-25T08:03:15.906Z,16.05
2022-12-25T08:06:18.021Z,16.11
2022-12-25T08:09:19.527Z,16.16
2022-12-25T08:12:21.023Z,16.22
2022-12-25T08:15:22.551Z,16.26
2022-12-25T08:18:29.488Z,16.32
2022-12-25T08:21:31.565Z,16.35
2022-12-25T08:24:33.109Z,16.40
2022-12-25T08:27:35.355Z,16.45
2022-12-25T08:30:40.356Z,16.50
2022-12-25T08:33:42.417Z,16.55
2022-12-25T08:36:43.948Z,16.58
2022-12-25T08:39:45.889Z,16.62
2022-12-25T08:42:47.348Z,16.65
2022-12-25T08:45:49.084Z,16.68
2022-12-25T08:48:50.784Z,16.70
2022-12-25T08:51:52.249Z,16.73
2022-12-25T08:54:53.742Z,16.74
2022-12-25T08:57:55.255Z,16.77
2022-12-25T09:00:57.263Z,16.79
2022-12-25T09:03:58.862Z,16.79
2022-12-25T09:07:00.410Z,16.80
2022-12-25T09:10:02.093Z,16.82
2022-12-25T09:13:04.862Z,16.84
2022-12-25T09:16:08.443Z,16.87
2022-12-25T09:19:09.977Z,16.89
2022-12-25T09:22:11.491Z,16.91
2022-12-25T09:25:12.976Z,16.94
2022-12-25T09:28:14.443Z,16.95
2022-12-25T09:31:16.110Z,16.99
2022-12-25T09:34:19.190Z,17.03
2022-12-25T09:37:20.797Z,17.05
2022-12-25T09:40:25.735Z,17.07
2022-12-25T09:43:29.198Z,17.09
2022-12-25T09:46:40.881Z,17.11
2022-12-25T09:50:11.475Z,17.13
2022-12-25T09:53:16.641Z,17.13
2022-12-25T09:56:25.477Z,17.16
2022-12-25T09:59:27.447Z,17.17
2022-12-25T10:02:49.424Z,17.20
2022-12-25T10:05:51.082Z,17.20
2022-12-25T10:09:01.763Z,17.22
2022-12-25T10:12:16.364Z,17.22
2022-12-25T10:15:39.291Z,17.22
2022-12-25T10:19:15.398Z,17.26
2022-12-25T10:22:25.400Z,17.27
2022-12-25T10:25:26.913Z,17.27
2022-12-25T10:28:32.535Z,17.28
2022-12-25T10:31:36.989Z,17.30
2022-12-25T10:34:41.661Z,17.32
2022-12-25T10:37:46.176Z,17.32
2022-12-25T10:41:24.012Z,17.34
2022-12-25T10:44:26.336Z,17.34
2022-12-25T10:47:31.334Z,17.37
2022-12-25T10:50:33.759Z,17.37
2022-12-25T10:53:41.614Z,17.41
2022-12-25T10:56:56.312Z,17.42
2022-12-25T10:59:57.939Z,17.41
2022-12-25T11:02:59.840Z,17.44
2022-12-25T11:06:02.802Z,17.43
2022-12-25T11:09:04.411Z,17.44
2022-12-25T11:12:06.702Z,17.45
2022-12-25T11:15:48.793Z,17.48
2022-12-25T11:18:52.435Z,17.48
2022-12-25T11:21:57.276Z,17.51
2022-12-25T11:25:11.961Z,17.52
2022-12-25T11:28:13.947Z,17.52
2022-12-25T11:31:22.486Z,17.54
2022-12-25T11:34:42.864Z,17.55
2022-12-25T11:37:52.478Z,17.56
2022-12-25T11:40:58.458Z,17.57
2022-12-25T11:44:05.635Z,17.58
2022-12-25T11:47:17.284Z,17.62
2022-12-25T11:50:24.968Z,17.62
2022-12-25T11:53:38.306Z,17.65
2022-12-25T11:56:40.053Z,17.67
2022-12-25T11:59:56.011Z,17.68
2022-12-25T12:03:06.925Z,17.68
2022-12-25T12:06:26.890Z,17.64
2022-12-25T12:09:37.493Z,17.64
2022-12-25T12:13:17.960Z,17.64
2022-12-25T12:16:19.624Z,17.63
2022-12-25T12:19:26.263Z,17.63
2022-12-25T12:22:28.379Z,17.62
2022-12-25T12:25:31.014Z,17.61
2022-12-25T12:28:44.667Z,17.62
2022-12-25T12:31:49.690Z,17.60
2022-12-25T12:34:51.597Z,17.58
2022-12-25T12:37:56.633Z,17.57
2022-12-25T12:41:00.590Z,17.56
2022-12-25T12:44:05.282Z,17.56
2022-12-25T12:47:06.904Z,17.53
2022-12-25T12:50:37.069Z,17.50
2022-12-25T12:53:42.895Z,17.44
2022-12-25T12:57:01.179Z,17.39
2022-12-25T13:00:10.552Z,17.33
2022-12-25T13:04:00.515Z,17.30
2022-12-25T13:07:12.991Z,17.25
2022-12-25T13:10:14.519Z,17.21
2022-12-25T13:13:27.350Z,17.22
2022-12-25T13:16:38.715Z,17.27
2022-12-25T13:19:42.909Z,17.30
2022-12-25T13:22:50.664Z,17.33
2022-12-25T13:26:01.404Z,17.37
2022-12-25T13:29:07.989Z,17.41
2022-12-25T13:32:23.893Z,17.45
2022-12-25T13:35:25.417Z,17.43
2022-12-25T13:38:29.081Z,17.43
2022-12-25T13:42:00.879Z,17.45
2022-12-25T13:45:06.426Z,17.46
2022-12-25T13:48:17.584Z,17.46
2022-12-25T13:51:20.403Z,17.44
2022-12-25T13:54:21.958Z,17.42
2022-12-25T13:57:29.341Z,17.42
2022-12-25T14:00:38.099Z,17.41
2022-12-25T14:03:44.277Z,17.39
2022-12-25T14:06:46.073Z,17.39
2022-12-25T14:09:51.164Z,17.39
2022-12-25T14:12:56.072Z,17.40
2022-12-25T14:15:57.969Z,17.40
2022-12-25T14:19:03.464Z,17.43
2022-12-25T14:22:11.315Z,17.44
2022-12-25T14:25:16.272Z,17.44
2022-12-25T14:28:25.472Z,17.46
2022-12-25T14:31:28.907Z,17.48
2022-12-25T14:34:41.150Z,17.48
2022-12-25T14:37:42.876Z,17.48
2022-12-25T14:40:45.563Z,17.47
2022-12-25T14:43:54.930Z,17.50
2022-12-25T14:47:20.051Z,17.50
2022-12-25T14:50:25.541Z,17.52
2022-12-25T14:53:40.996Z,17.52
2022-12-25T14:56:48.145Z,17.52
2022-12-25T14:59:56.650Z,17.52
2022-12-25T15:03:00.340Z,17.53
2022-12-25T15:06:19.008Z,17.55
2022-12-25T15:09:21.508Z,17.55
2022-12-25T15:12:23.202Z,17.57
2022-12-25T15:15:24.832Z,17.60
2022-12-25T15:18:31.491Z,17.63
2022-12-25T15:21:36.063Z,17.64
2022-12-25T15:24:37.565Z,17.65
2022-12-25T15:27:39.034Z,17.66
2022-12-25T15:30:40.993Z,17.68
2022-12-25T15:33:44.328Z,17.69
2022-12-25T15:36:46.802Z,17.69
2022-12-25T15:39:48.382Z,17.70
2022-12-25T15:42:50.258Z,17.72
2022-12-25T15:45:51.785Z,17.72
2022-12-25T15:48:53.338Z,17.74
2022-12-25T15:51:54.861Z,17.75
2022-12-25T15:54:56.316Z,17.77
2022-12-25T15:57:57.842Z,17.77
2022-12-25T16:00:59.383Z,17.79
2022-12-25T16:04:00.856Z,17.79
2022-12-25T16:07:02.690Z,17.79
2022-12-25T16:10:06.573Z,17.79
2022-12-25T16:13:08.132Z,17.79
2022-12-25T16:16:09.714Z,17.80
2022-12-25T16:19:11.187Z,17.79
2022-12-25T16:22:22.723Z,17.83
2022-12-25T16:25:24.541Z,17.80
2022-12-25T16:28:26.055Z,17.82
2022-12-25T16:31:27.921Z,17.81
2022-12-25T16:34:29.496Z,17.83
2022-12-25T16:37:31.101Z,17.84
2022-12-25T16:40:32.610Z,17.85
2022-12-25T16:43:34.879Z,17.85
2022-12-25T16:46:37.668Z,17.88
2022-12-25T16:49:39.409Z,17.87
2022-12-25T16:52:40.940Z,17.90
2022-12-25T16:55:42.431Z,17.89
2022-12-25T16:58:48.221Z,17.91
2022-12-25T17:01:49.872Z,17.92
2022-12-25T17:04:51.462Z,17.92
2022-12-25T17:07:53.040Z,17.93
2022-12-25T17:10:54.583Z,17.91
2022-12-25T17:13:57.878Z,17.92
2022-12-25T17:16:59.550Z,17.91
2022-12-25T17:20:00.992Z,17.91
2022-12-25T17:23:02.492Z,17.91
2022-12-25T17:26:05.388Z,17.92
2022-12-25T17:29:08.392Z,17.93
2022-12-25T17:32:11.319Z,17.93
2022-12-25T17:35:12.987Z,17.94
2022-12-25T17:38:14.556Z,17.93
2022-12-25T17:41:18.321Z,17.95
2022-12-25T17:44:21.080Z,17.95
2022-12-25T17:47:22.565Z,17.95
2022-12-25T17:50:25.483Z,17.96
2022-12-25T17:53:27.305Z,17.96
2022-12-25T17:56:29.099Z,17.97
2022-12-25T17:59:30.574Z,17.97
2022-12-25T18:02:32.189Z,17.96
2022-12-25T18:05:36.842Z,17.98
2022-12-25T18:08:39.910Z,17.97
2022-12-25T18:11:42.923Z,17.97
2022-12-25T18:14:44.418Z,17.96
2022-12-25T18:17:45.948Z,17.98
2022-12-25T18:20:47.461Z,17.97
2022-12-25T18:23:50.206Z,17.98
2022-12-25T18:26:51.786Z,17.97
2022-12-25T18:29:53.388Z,17.98
2022-12-25T18:32:55.347Z,17.98
2022-12-25T18:35:59.189Z,17.99
2022-12-25T18:39:01.835Z,18.00
2022-12-25T18:42:21.895Z,18.01
2022-12-25T18:45:23.777Z,18.03
2022-12-25T18:48:25.975Z,18.02
2022-12-25T18:51:33.192Z,18.03
2022-12-25T18:54:38.017Z,18.03
2022-12-25T18:57:40.822Z,18.02
2022-12-25T19:00:42.389Z,18.03
2022-12-25T19:03:44.423Z,18.04
2022-12-25T19:06:46.305Z,18.05
2022-12-25T19:09:48.623Z,18.07
2022-12-25T19:12:50.168Z,18.08
2022-12-25T19:15:51.720Z,18.10
2022-12-25T19:18:53.316Z,18.10
2022-12-25T19:21:56.833Z,18.12
2022-12-25T19:24:58.416Z,18.13
2022-12-25T19:28:00.162Z,18.15
2022-12-25T19:31:02.480Z,18.16
2022-12-25T19:34:04.511Z,18.17
2022-12-25T19:37:06.172Z,18.18
2022-12-25T19:40:08.433Z,18.20
2022-12-25T19:43:09.944Z,18.20
2022-12-25T19:46:17.754Z,18.23
2022-12-25T19:49:19.287Z,18.24
2022-12-25T19:52:20.769Z,18.27
2022-12-25T19:55:22.572Z,18.28
2022-12-25T19:58:24.059Z,18.28
2022-12-25T20:01:29.107Z,18.30
2022-12-25T20:04:30.752Z,18.29
2022-12-25T20:07:32.226Z,18.31
2022-12-25T20:10:33.722Z,18.32
2022-12-25T20:13:35.203Z,18.34
2022-12-25T20:16:38.206Z,18.35
2022-12-25T20:19:39.860Z,18.35
2022-12-25T20:22:41.331Z,18.37
2022-12-25T20:25:42.970Z,18.37
2022-12-25T20:28:45.009Z,18.38
2022-12-25T20:31:46.591Z,18.39
2022-12-25T20:34:48.188Z,18.39
2022-12-25T20:37:49.695Z,18.38
2022-12-25T20:41:25.725Z,18.39
2022-12-25T20:44:20.727Z,18.39
2022-12-25T20:47:22.238Z,18.37
2022-12-25T20:50:23.722Z,18.39
2022-12-25T20:53:25.189Z,18.41
2022-12-25T20:56:27.343Z,18.41
2022-12-25T20:59:35.173Z,18.42
2022-12-25T21:02:39.070Z,18.42
2022-12-25T21:05:49.734Z,18.43
2022-12-25T21:08:51.653Z,18.43
2022-12-25T21:11:53.163Z,18.42
2022-12-25T21:14:54.685Z,18.44
2022-12-25T21:17:56.187Z,18.44
2022-12-25T21:20:58.903Z,18.46
2022-12-25T21:24:00.410Z,18.44
2022-12-25T21:27:02.348Z,18.45
2022-12-25T21:30:15.267Z,18.46
2022-12-25T21:33:36.103Z,18.46
2022-12-25T21:36:37.893Z,18.46
2022-12-25T21:39:39.416Z,18.48
2022-12-25T21:42:40.902Z,18.47
2022-12-25T21:45:42.569Z,18.50
2022-12-25T21:48:44.249Z,18.49
2022-12-25T21:52:04.431Z,18.48
2022-12-25T21:55:06.250Z,18.49
2022-12-25T21:58:07.845Z,18.49
2022-12-25T22:01:11.044Z,18.49
2022-12-25T22:04:14.100Z,18.50
2022-12-25T22:07:18.520Z,18.47
2022-12-25T22:10:20.009Z,18.47
2022-12-25T22:13:40.397Z,18.46
2022-12-25T22:17:00.658Z,18.47
2022-12-25T22:20:02.564Z,18.47
2022-12-25T22:23:04.814Z,18.47
2022-12-25T22:26:06.466Z,18.46
2022-12-25T22:29:07.981Z,18.47
2022-12-25T22:32:10.992Z,18.46
2022-12-25T22:35:13.529Z,18.45
2022-12-25T22:38:15.035Z,18.43
2022-12-25T22:41:16.572Z,18.40
2022-12-25T22:44:18.628Z,18.38
2022-12-25T22:47:20.313Z,18.36
2022-12-25T22:50:21.905Z,18.33
2022-12-25T22:53:23.489Z,18.31
2022-12-25T22:56:24.964Z,18.29
2022-12-25T22:59:26.994Z,18.27
2022-12-25T23:02:28.772Z,18.25
2022-12-25T23:05:30.398Z,18.20
2022-12-25T23:08:31.894Z,18.18
2022-12-25T23:11:34.309Z,18.17
2022-12-25T23:14:40.777Z,18.15
2022-12-25T23:18:00.625Z,18.14
2022-12-25T23:21:20.585Z,18.12
2022-12-25T23:24:40.539Z,18.09
2022-12-25T23:27:43.577Z,18.07
2022-12-25T23:30:45.086Z,18.05
2022-12-25T23:33:46.572Z,18.03
2022-12-25T23:36:48.150Z,18.01
2022-12-25T23:39:50.093Z,17.99
2022-12-25T23:42:51.607Z,17.97
2022-12-25T23:45:53.114Z,17.95
2022-12-25T23:48:54.697Z,17.94
2022-12-25T23:51:56.673Z,17.93
2022-12-25T23:54:58.224Z,17.90
2022-12-25T23:57:59.769Z,17.88
